sensor_id;sensor_type;location;lat;lon;timestamp;P1;durP1;ratioP1;P2;durP2;ratioP2
61553;SDS011;47425;51.976;5.326;2022-09-02T08:02:39;24.85;;;3.28;;
61553;SDS011;47425;51.976;5.326;2022-09-02T08:05:05;18.20;;;2.28;;
61553;SDS011;47425;51.976;5.326;2022-09-02T08:07:31;10.65;;;1.90;;
61553;SDS011;47425;51.976;5.326;2022-09-02T08:09:56;38.05;;;3.47;;
61553;SDS011;47425;51.976;5.326;2022-09-02T08:12:25;21.73;;;2.50;;
61553;SDS011;47425;51.976;5.326;2022-09-02T08:14:52;12.80;;;2.22;;
61553;SDS011;47425;51.976;5.326;2022-09-02T08:17:17;9.07;;;2.20;;
61553;SDS011;47425;51.976;5.326;2022-09-02T08:19:44;6.15;;;1.60;;
61553;SDS011;47425;51.976;5.326;2022-09-02T08:22:09;7.00;;;1.60;;
61553;SDS011;47425;51.976;5.326;2022-09-02T08:24:35;5.53;;;1.58;;
61553;SDS011;47425;51.976;5.326;2022-09-02T08:27:00;2.40;;;1.42;;
61553;SDS011;47425;51.976;5.326;2022-09-02T08:29:26;4.57;;;1.63;;
61553;SDS011;47425;51.976;5.326;2022-09-02T08:31:51;7.25;;;1.45;;
61553;SDS011;47425;51.976;5.326;2022-09-02T08:34:17;3.50;;;1.30;;
61553;SDS011;47425;51.976;5.326;2022-09-02T08:36:43;5.75;;;1.63;;
61553;SDS011;47425;51.976;5.326;2022-09-02T08:39:09;3.15;;;1.30;;
61553;SDS011;47425;51.976;5.326;2022-09-02T08:44:19;5.55;;;1.33;;
61553;SDS011;47425;51.976;5.326;2022-09-02T08:46:46;6.45;;;1.45;;
61553;SDS011;47425;51.976;5.326;2022-09-02T08:49:17;6.00;;;1.30;;
61553;SDS011;47425;51.976;5.326;2022-09-02T08:51:55;7.35;;;1.50;;
61553;SDS011;47425;51.976;5.326;2022-09-02T08:56:50;6.05;;;1.60;;
61553;SDS011;47425;51.976;5.326;2022-09-02T08:59:20;4.25;;;1.52;;
61553;SDS011;47425;51.976;5.326;2022-09-02T09:02:06;7.28;;;1.70;;
61553;SDS011;47425;51.976;5.326;2022-09-02T09:10:23;9.27;;;1.58;;
61553;SDS011;47425;51.976;5.326;2022-09-02T09:13:17;6.50;;;1.60;;
61553;SDS011;47425;51.976;5.326;2022-09-02T09:18:29;8.88;;;1.85;;
61553;SDS011;47425;51.976;5.326;2022-09-02T09:23:32;10.35;;;1.70;;
61553;SDS011;47425;51.976;5.326;2022-09-02T09:26:07;10.13;;;1.40;;
61553;SDS011;47425;51.976;5.326;2022-09-02T09:28:45;9.45;;;1.85;;
61553;SDS011;47425;51.976;5.326;2022-09-02T09:31:19;7.20;;;1.70;;
61553;SDS011;47425;51.976;5.326;2022-09-02T09:33:55;8.88;;;1.60;;
61553;SDS011;47425;51.976;5.326;2022-09-02T09:39:24;6.78;;;1.30;;
61553;SDS011;47425;51.976;5.326;2022-09-02T09:41:56;7.78;;;1.73;;
61553;SDS011;47425;51.976;5.326;2022-09-02T09:44:44;9.90;;;2.22;;
61553;SDS011;47425;51.976;5.326;2022-09-02T09:49:39;7.82;;;1.60;;
61553;SDS011;47425;51.976;5.326;2022-09-02T09:52:05;6.95;;;1.63;;
61553;SDS011;47425;51.976;5.326;2022-09-02T09:54:30;4.22;;;1.40;;
61553;SDS011;47425;51.976;5.326;2022-09-02T09:57:11;3.80;;;1.40;;
61553;SDS011;47425;51.976;5.326;2022-09-02T09:59:45;4.97;;;1.60;;
61553;SDS011;47425;51.976;5.326;2022-09-02T10:02:22;5.45;;;1.58;;
61553;SDS011;47425;51.976;5.326;2022-09-02T10:04:51;5.85;;;1.65;;
61553;SDS011;47425;51.976;5.326;2022-09-02T10:10:08;6.50;;;1.50;;
61553;SDS011;47425;51.976;5.326;2022-09-02T10:12:40;3.38;;;1.30;;
61553;SDS011;47425;51.976;5.326;2022-09-02T10:15:05;5.00;;;1.23;;
61553;SDS011;47425;51.976;5.326;2022-09-02T10:23:16;4.80;;;1.33;;
61553;SDS011;47425;51.976;5.326;2022-09-02T10:25:54;3.08;;;1.38;;
61553;SDS011;47425;51.976;5.326;2022-09-02T10:33:53;7.30;;;1.08;;
61553;SDS011;47425;51.976;5.326;2022-09-02T10:36:49;6.22;;;1.02;;
61553;SDS011;47425;51.976;5.326;2022-09-02T10:42:27;4.10;;;1.30;;
61553;SDS011;47425;51.976;5.326;2022-09-02T10:50:36;3.03;;;1.30;;
61553;SDS011;47425;51.976;5.326;2022-09-02T10:53:15;3.92;;;1.33;;
61553;SDS011;47425;51.976;5.326;2022-09-02T10:55:58;4.47;;;1.30;;
61553;SDS011;47425;51.976;5.326;2022-09-02T10:58:40;3.78;;;1.55;;
61553;SDS011;47425;51.976;5.326;2022-09-02T11:01:46;7.32;;;1.60;;
61553;SDS011;47425;51.976;5.326;2022-09-02T11:04:37;2.13;;;1.20;;
61553;SDS011;47425;51.976;5.326;2022-09-02T11:07:13;4.60;;;1.30;;
61553;SDS011;47425;51.976;5.326;2022-09-02T11:09:46;5.68;;;1.20;;
61553;SDS011;47425;51.976;5.326;2022-09-02T11:12:38;2.40;;;1.30;;
61553;SDS011;47425;51.976;5.326;2022-09-02T11:15:17;5.25;;;1.30;;
61553;SDS011;47425;51.976;5.326;2022-09-02T11:20:27;5.78;;;1.42;;
61553;SDS011;47425;51.976;5.326;2022-09-02T11:26:08;4.70;;;1.35;;
61553;SDS011;47425;51.976;5.326;2022-09-02T11:28:42;16.20;;;2.03;;
61553;SDS011;47425;51.976;5.326;2022-09-02T11:31:26;8.25;;;1.40;;
61553;SDS011;47425;51.976;5.326;2022-09-02T11:36:51;8.85;;;1.40;;
61553;SDS011;47425;51.976;5.326;2022-09-02T11:49:49;5.85;;;1.60;;
61553;SDS011;47425;51.976;5.326;2022-09-02T11:52:33;7.43;;;1.15;;
61553;SDS011;47425;51.976;5.326;2022-09-02T11:55:13;7.13;;;1.35;;
61553;SDS011;47425;51.976;5.326;2022-09-02T11:57:54;5.95;;;1.55;;
61553;SDS011;47425;51.976;5.326;2022-09-02T12:08:01;3.00;;;1.17;;
61553;SDS011;47425;51.976;5.326;2022-09-02T12:13:05;2.70;;;1.25;;
61553;SDS011;47425;51.976;5.326;2022-09-02T12:18:11;2.78;;;1.35;;
61553;SDS011;47425;51.976;5.326;2022-09-02T12:26:12;1.58;;;1.10;;
61553;SDS011;47425;51.976;5.326;2022-09-02T12:28:40;2.08;;;1.20;;
61553;SDS011;47425;51.976;5.326;2022-09-02T12:33:36;3.03;;;1.50;;
61553;SDS011;47425;51.976;5.326;2022-09-02T12:36:05;2.80;;;1.50;;
61553;SDS011;47425;51.976;5.326;2022-09-02T12:38:36;1.27;;;1.03;;
61553;SDS011;47425;51.976;5.326;2022-09-02T12:49:08;6.03;;;1.30;;
61553;SDS011;47425;51.976;5.326;2022-09-02T12:51:52;3.30;;;1.30;;
61553;SDS011;47425;51.976;5.326;2022-09-02T12:54:24;3.58;;;1.35;;
61553;SDS011;47425;51.976;5.326;2022-09-02T12:56:57;5.07;;;1.70;;
61553;SDS011;47425;51.976;5.326;2022-09-02T12:59:30;4.50;;;1.20;;
61553;SDS011;47425;51.976;5.326;2022-09-02T13:02:03;3.80;;;1.27;;
61553;SDS011;47425;51.976;5.326;2022-09-02T13:04:45;2.72;;;1.27;;
61553;SDS011;47425;51.976;5.326;2022-09-02T13:12:58;3.25;;;1.35;;
61553;SDS011;47425;51.976;5.326;2022-09-02T13:15:33;5.05;;;1.70;;
61553;SDS011;47425;51.976;5.326;2022-09-02T13:18:21;2.10;;;1.30;;
61553;SDS011;47425;51.976;5.326;2022-09-02T13:24:11;3.95;;;1.17;;
61553;SDS011;47425;51.976;5.326;2022-09-02T13:34:34;4.90;;;1.30;;
61553;SDS011;47425;51.976;5.326;2022-09-02T13:37:06;2.33;;;1.30;;
61553;SDS011;47425;51.976;5.326;2022-09-02T13:39:53;4.63;;;1.43;;
61553;SDS011;47425;51.976;5.326;2022-09-02T13:42:27;4.28;;;1.40;;
61553;SDS011;47425;51.976;5.326;2022-09-02T13:45:08;4.03;;;1.45;;
61553;SDS011;47425;51.976;5.326;2022-09-02T13:47:35;2.95;;;1.20;;
61553;SDS011;47425;51.976;5.326;2022-09-02T13:50:01;3.70;;;1.50;;
61553;SDS011;47425;51.976;5.326;2022-09-02T13:52:28;6.15;;;1.42;;
61553;SDS011;47425;51.976;5.326;2022-09-02T13:54:54;2.47;;;1.52;;
61553;SDS011;47425;51.976;5.326;2022-09-02T13:57:23;3.97;;;1.23;;
61553;SDS011;47425;51.976;5.326;2022-09-02T13:59:53;6.03;;;1.70;;
61553;SDS011;47425;51.976;5.326;2022-09-02T14:05:00;2.38;;;1.60;;
61553;SDS011;47425;51.976;5.326;2022-09-02T14:07:31;3.42;;;1.35;;
61553;SDS011;47425;51.976;5.326;2022-09-02T14:10:04;6.38;;;1.50;;
61553;SDS011;47425;51.976;5.326;2022-09-02T14:12:34;5.25;;;1.63;;
61553;SDS011;47425;51.976;5.326;2022-09-02T14:17:29;2.83;;;1.50;;
61553;SDS011;47425;51.976;5.326;2022-09-02T14:20:17;5.85;;;1.45;;
61553;SDS011;47425;51.976;5.326;2022-09-02T14:22:41;4.72;;;1.60;;
61553;SDS011;47425;51.976;5.326;2022-09-02T14:25:14;3.42;;;1.48;;
61553;SDS011;47425;51.976;5.326;2022-09-02T14:27:49;2.75;;;1.40;;
61553;SDS011;47425;51.976;5.326;2022-09-02T14:30:30;2.83;;;1.50;;
61553;SDS011;47425;51.976;5.326;2022-09-02T14:36:28;3.53;;;1.20;;
61553;SDS011;47425;51.976;5.326;2022-09-02T14:39:09;4.28;;;1.60;;
61553;SDS011;47425;51.976;5.326;2022-09-02T14:41:53;4.15;;;1.38;;
61553;SDS011;47425;51.976;5.326;2022-09-02T14:44:22;3.37;;;1.30;;
61553;SDS011;47425;51.976;5.326;2022-09-02T14:46:58;3.05;;;1.40;;
61553;SDS011;47425;51.976;5.326;2022-09-02T14:49:34;1.70;;;1.08;;
61553;SDS011;47425;51.976;5.326;2022-09-02T14:52:15;2.33;;;1.30;;
61553;SDS011;47425;51.976;5.326;2022-09-02T14:54:46;3.05;;;1.20;;
61553;SDS011;47425;51.976;5.326;2022-09-02T14:59:45;2.30;;;1.23;;
61553;SDS011;47425;51.976;5.326;2022-09-02T15:04:54;1.90;;;1.08;;
61553;SDS011;47425;51.976;5.326;2022-09-02T15:07:26;1.70;;;1.30;;
61553;SDS011;47425;51.976;5.326;2022-09-02T15:09:52;3.30;;;1.20;;
61553;SDS011;47425;51.976;5.326;2022-09-02T15:12:42;2.35;;;1.30;;
61553;SDS011;47425;51.976;5.326;2022-09-02T15:15:19;2.88;;;1.45;;
61553;SDS011;47425;51.976;5.326;2022-09-02T15:17:44;1.35;;;1.23;;
61553;SDS011;47425;51.976;5.326;2022-09-02T15:20:10;1.42;;;1.10;;
61553;SDS011;47425;51.976;5.326;2022-09-02T15:22:36;2.33;;;1.10;;
61553;SDS011;47425;51.976;5.326;2022-09-02T15:25:03;5.43;;;1.30;;
61553;SDS011;47425;51.976;5.326;2022-09-02T15:27:32;3.35;;;1.30;;
61553;SDS011;47425;51.976;5.326;2022-09-02T15:29:58;3.03;;;1.20;;
61553;SDS011;47425;51.976;5.326;2022-09-02T15:32:26;2.78;;;1.60;;
61553;SDS011;47425;51.976;5.326;2022-09-02T15:34:52;3.08;;;1.30;;
61553;SDS011;47425;51.976;5.326;2022-09-02T15:37:17;2.92;;;1.10;;
61553;SDS011;47425;51.976;5.326;2022-09-02T15:39:44;2.22;;;1.10;;
61553;SDS011;47425;51.976;5.326;2022-09-02T15:42:09;2.67;;;1.45;;
61553;SDS011;47425;51.976;5.326;2022-09-02T15:44:35;1.98;;;1.13;;
61553;SDS011;47425;51.976;5.326;2022-09-02T15:47:01;2.95;;;1.20;;
61553;SDS011;47425;51.976;5.326;2022-09-02T15:49:27;2.13;;;1.30;;
61553;SDS011;47425;51.976;5.326;2022-09-02T15:51:53;2.53;;;1.48;;
61553;SDS011;47425;51.976;5.326;2022-09-02T15:54:19;2.20;;;1.20;;
61553;SDS011;47425;51.976;5.326;2022-09-02T15:56:47;2.10;;;1.30;;
61553;SDS011;47425;51.976;5.326;2022-09-02T15:59:18;2.58;;;1.27;;
61553;SDS011;47425;51.976;5.326;2022-09-02T16:01:46;1.70;;;1.40;;
61553;SDS011;47425;51.976;5.326;2022-09-02T16:04:13;2.33;;;1.35;;
61553;SDS011;47425;51.976;5.326;2022-09-02T16:06:43;2.10;;;1.15;;
61553;SDS011;47425;51.976;5.326;2022-09-02T16:09:11;1.73;;;1.33;;
61553;SDS011;47425;51.976;5.326;2022-09-02T16:11:38;3.85;;;1.40;;
61553;SDS011;47425;51.976;5.326;2022-09-02T16:14:12;4.40;;;1.33;;
61553;SDS011;47425;51.976;5.326;2022-09-02T16:16:39;2.63;;;1.30;;
61553;SDS011;47425;51.976;5.326;2022-09-02T16:19:05;4.78;;;1.17;;
61553;SDS011;47425;51.976;5.326;2022-09-02T16:21:34;2.88;;;1.45;;
61553;SDS011;47425;51.976;5.326;2022-09-02T16:24:04;2.95;;;1.30;;
61553;SDS011;47425;51.976;5.326;2022-09-02T16:26:31;5.18;;;1.40;;
61553;SDS011;47425;51.976;5.326;2022-09-02T16:28:58;3.72;;;1.23;;
61553;SDS011;47425;51.976;5.326;2022-09-02T16:31:26;1.77;;;1.55;;
61553;SDS011;47425;51.976;5.326;2022-09-02T16:34:02;2.95;;;1.23;;
61553;SDS011;47425;51.976;5.326;2022-09-02T16:36:31;3.33;;;1.58;;
61553;SDS011;47425;51.976;5.326;2022-09-02T16:41:48;1.90;;;1.70;;
61553;SDS011;47425;51.976;5.326;2022-09-02T16:44:18;2.97;;;1.40;;
61553;SDS011;47425;51.976;5.326;2022-09-02T16:46:54;3.00;;;1.50;;
61553;SDS011;47425;51.976;5.326;2022-09-02T16:49:19;4.85;;;1.60;;
61553;SDS011;47425;51.976;5.326;2022-09-02T16:51:48;2.75;;;1.40;;
61553;SDS011;47425;51.976;5.326;2022-09-02T16:54:14;2.92;;;1.30;;
61553;SDS011;47425;51.976;5.326;2022-09-02T16:56:40;3.35;;;1.63;;
61553;SDS011;47425;51.976;5.326;2022-09-02T16:59:07;1.48;;;1.33;;
61553;SDS011;47425;51.976;5.326;2022-09-02T17:01:36;3.30;;;1.42;;
61553;SDS011;47425;51.976;5.326;2022-09-02T17:06:48;2.17;;;1.30;;
61553;SDS011;47425;51.976;5.326;2022-09-02T17:09:14;2.20;;;1.35;;
61553;SDS011;47425;51.976;5.326;2022-09-02T17:11:41;2.40;;;1.27;;
61553;SDS011;47425;51.976;5.326;2022-09-02T17:14:12;4.47;;;1.52;;
61553;SDS011;47425;51.976;5.326;2022-09-02T17:16:41;2.05;;;1.40;;
61553;SDS011;47425;51.976;5.326;2022-09-02T17:19:13;3.03;;;1.63;;
61553;SDS011;47425;51.976;5.326;2022-09-02T17:21:46;2.35;;;1.35;;
61553;SDS011;47425;51.976;5.326;2022-09-02T17:24:15;6.50;;;1.20;;
61553;SDS011;47425;51.976;5.326;2022-09-02T17:26:45;2.35;;;1.25;;
61553;SDS011;47425;51.976;5.326;2022-09-02T17:29:14;4.03;;;1.83;;
61553;SDS011;47425;51.976;5.326;2022-09-02T17:34:07;4.53;;;1.42;;
61553;SDS011;47425;51.976;5.326;2022-09-02T17:36:34;3.88;;;1.85;;
61553;SDS011;47425;51.976;5.326;2022-09-02T17:39:03;3.33;;;1.65;;
61553;SDS011;47425;51.976;5.326;2022-09-02T17:41:30;4.47;;;1.55;;
61553;SDS011;47425;51.976;5.326;2022-09-02T17:44:16;2.28;;;1.30;;
61553;SDS011;47425;51.976;5.326;2022-09-02T17:46:42;2.33;;;1.55;;
61553;SDS011;47425;51.976;5.326;2022-09-02T17:49:08;1.48;;;1.20;;
61553;SDS011;47425;51.976;5.326;2022-09-02T17:51:34;4.45;;;1.50;;
61553;SDS011;47425;51.976;5.326;2022-09-02T17:53:59;1.92;;;1.25;;
61553;SDS011;47425;51.976;5.326;2022-09-02T17:56:33;2.83;;;1.30;;
61553;SDS011;47425;51.976;5.326;2022-09-02T18:02:11;2.08;;;1.35;;
61553;SDS011;47425;51.976;5.326;2022-09-02T18:07:29;5.30;;;1.25;;
61553;SDS011;47425;51.976;5.326;2022-09-02T18:10:06;4.82;;;1.30;;
61553;SDS011;47425;51.976;5.326;2022-09-02T18:12:32;2.53;;;1.35;;
61553;SDS011;47425;51.976;5.326;2022-09-02T18:15:19;2.67;;;1.60;;
61553;SDS011;47425;51.976;5.326;2022-09-02T18:17:46;3.15;;;1.30;;
61553;SDS011;47425;51.976;5.326;2022-09-02T18:26:29;3.78;;;1.00;;
61553;SDS011;47425;51.976;5.326;2022-09-02T18:29:11;2.53;;;1.30;;
61553;SDS011;47425;51.976;5.326;2022-09-02T18:40:39;3.10;;;1.30;;
61553;SDS011;47425;51.976;5.326;2022-09-02T18:43:34;2.33;;;1.30;;
61553;SDS011;47425;51.976;5.326;2022-09-02T18:46:05;2.13;;;1.15;;
61553;SDS011;47425;51.976;5.326;2022-09-02T18:48:36;2.55;;;1.30;;
61553;SDS011;47425;51.976;5.326;2022-09-02T18:53:46;2.97;;;1.10;;
61553;SDS011;47425;51.976;5.326;2022-09-02T18:56:16;3.15;;;1.25;;
61553;SDS011;47425;51.976;5.326;2022-09-02T18:59:10;3.88;;;1.25;;
61553;SDS011;47425;51.976;5.326;2022-09-02T19:01:47;1.30;;;1.20;;
61553;SDS011;47425;51.976;5.326;2022-09-02T19:04:21;3.67;;;1.48;;
61553;SDS011;47425;51.976;5.326;2022-09-02T19:06:52;1.77;;;1.30;;
61553;SDS011;47425;51.976;5.326;2022-09-02T19:09:40;3.13;;;1.50;;
61553;SDS011;47425;51.976;5.326;2022-09-02T19:12:05;4.35;;;1.40;;
61553;SDS011;47425;51.976;5.326;2022-09-02T19:14:32;4.07;;;1.27;;
61553;SDS011;47425;51.976;5.326;2022-09-02T19:16:57;1.80;;;1.35;;
61553;SDS011;47425;51.976;5.326;2022-09-02T19:19:23;4.75;;;1.38;;
61553;SDS011;47425;51.976;5.326;2022-09-02T19:21:53;4.00;;;1.73;;
61553;SDS011;47425;51.976;5.326;2022-09-02T19:24:24;2.90;;;1.15;;
61553;SDS011;47425;51.976;5.326;2022-09-02T19:26:58;1.23;;;1.13;;
61553;SDS011;47425;51.976;5.326;2022-09-02T19:29:29;2.63;;;1.10;;
61553;SDS011;47425;51.976;5.326;2022-09-02T19:31:56;2.42;;;1.13;;
61553;SDS011;47425;51.976;5.326;2022-09-02T19:34:21;3.45;;;1.13;;
61553;SDS011;47425;51.976;5.326;2022-09-02T19:36:49;2.20;;;1.20;;
61553;SDS011;47425;51.976;5.326;2022-09-02T19:39:38;1.10;;;1.00;;
61553;SDS011;47425;51.976;5.326;2022-09-02T19:42:05;1.70;;;1.20;;
61553;SDS011;47425;51.976;5.326;2022-09-02T19:44:30;2.85;;;1.27;;
61553;SDS011;47425;51.976;5.326;2022-09-02T19:46:56;2.45;;;1.55;;
61553;SDS011;47425;51.976;5.326;2022-09-02T19:49:22;1.63;;;1.20;;
61553;SDS011;47425;51.976;5.326;2022-09-02T19:51:49;1.50;;;0.98;;
61553;SDS011;47425;51.976;5.326;2022-09-02T19:54:15;2.35;;;1.17;;
61553;SDS011;47425;51.976;5.326;2022-09-02T19:56:42;1.42;;;1.00;;
61553;SDS011;47425;51.976;5.326;2022-09-02T19:59:09;1.48;;;1.25;;
61553;SDS011;47425;51.976;5.326;2022-09-02T20:01:35;3.05;;;1.30;;
61553;SDS011;47425;51.976;5.326;2022-09-02T20:04:01;2.88;;;1.25;;
61553;SDS011;47425;51.976;5.326;2022-09-02T20:06:26;1.05;;;0.98;;
61553;SDS011;47425;51.976;5.326;2022-09-02T20:08:53;2.33;;;1.20;;
61553;SDS011;47425;51.976;5.326;2022-09-02T20:11:18;1.52;;;1.35;;
61553;SDS011;47425;51.976;5.326;2022-09-02T20:13:44;1.40;;;1.02;;
61553;SDS011;47425;51.976;5.326;2022-09-02T20:16:21;1.58;;;1.20;;
61553;SDS011;47425;51.976;5.326;2022-09-02T20:18:50;1.10;;;1.00;;
61553;SDS011;47425;51.976;5.326;2022-09-02T20:21:27;6.68;;;1.10;;
61553;SDS011;47425;51.976;5.326;2022-09-02T20:24:03;2.70;;;1.20;;
61553;SDS011;47425;51.976;5.326;2022-09-02T20:26:52;0.93;;;0.88;;
61553;SDS011;47425;51.976;5.326;2022-09-02T20:35:17;1.58;;;1.20;;
61553;SDS011;47425;51.976;5.326;2022-09-02T20:44:21;1.00;;;1.00;;
61553;SDS011;47425;51.976;5.326;2022-09-02T20:47:25;3.22;;;1.13;;
61553;SDS011;47425;51.976;5.326;2022-09-02T20:53:17;2.83;;;1.02;;
61553;SDS011;47425;51.976;5.326;2022-09-02T20:56:11;2.75;;;1.20;;
61553;SDS011;47425;51.976;5.326;2022-09-02T20:58:46;1.20;;;1.10;;
61553;SDS011;47425;51.976;5.326;2022-09-02T21:01:35;5.88;;;1.30;;
61553;SDS011;47425;51.976;5.326;2022-09-02T21:07:04;1.35;;;1.00;;
61553;SDS011;47425;51.976;5.326;2022-09-02T21:09:47;1.45;;;0.95;;
61553;SDS011;47425;51.976;5.326;2022-09-02T21:12:21;1.90;;;1.10;;
61553;SDS011;47425;51.976;5.326;2022-09-02T21:14:57;3.08;;;1.02;;
61553;SDS011;47425;51.976;5.326;2022-09-02T21:17:36;2.40;;;1.23;;
61553;SDS011;47425;51.976;5.326;2022-09-02T21:20:09;1.58;;;1.20;;
61553;SDS011;47425;51.976;5.326;2022-09-02T21:23:04;4.18;;;1.08;;
61553;SDS011;47425;51.976;5.326;2022-09-02T21:25:47;2.33;;;1.15;;
61553;SDS011;47425;51.976;5.326;2022-09-02T21:28:21;1.65;;;1.05;;
61553;SDS011;47425;51.976;5.326;2022-09-02T21:31:26;1.85;;;0.90;;
61553;SDS011;47425;51.976;5.326;2022-09-02T21:33:59;1.77;;;0.98;;
61553;SDS011;47425;51.976;5.326;2022-09-02T21:36:33;1.90;;;1.13;;
61553;SDS011;47425;51.976;5.326;2022-09-02T21:39:02;1.92;;;1.20;;
61553;SDS011;47425;51.976;5.326;2022-09-02T21:41:35;1.50;;;0.93;;
61553;SDS011;47425;51.976;5.326;2022-09-02T21:44:06;1.48;;;1.02;;
61553;SDS011;47425;51.976;5.326;2022-09-02T21:46:53;1.70;;;1.17;;
61553;SDS011;47425;51.976;5.326;2022-09-02T21:54:54;1.77;;;1.20;;
61553;SDS011;47425;51.976;5.326;2022-09-02T22:00:18;2.20;;;1.10;;
61553;SDS011;47425;51.976;5.326;2022-09-02T22:03:00;2.42;;;1.00;;
61553;SDS011;47425;51.976;5.326;2022-09-02T22:11:21;2.28;;;1.17;;
61553;SDS011;47425;51.976;5.326;2022-09-02T22:14:22;4.72;;;1.13;;
61553;SDS011;47425;51.976;5.326;2022-09-02T22:20:00;1.42;;;1.02;;
61553;SDS011;47425;51.976;5.326;2022-09-02T22:22:29;1.65;;;1.10;;
61553;SDS011;47425;51.976;5.326;2022-09-02T22:25:00;2.03;;;1.00;;
61553;SDS011;47425;51.976;5.326;2022-09-02T22:30:06;2.00;;;1.30;;
61553;SDS011;47425;51.976;5.326;2022-09-02T22:33:21;2.80;;;1.13;;
61553;SDS011;47425;51.976;5.326;2022-09-02T22:36:05;1.92;;;1.00;;
61553;SDS011;47425;51.976;5.326;2022-09-02T22:38:38;0.82;;;0.82;;
61553;SDS011;47425;51.976;5.326;2022-09-02T22:41:20;1.58;;;1.00;;
61553;SDS011;47425;51.976;5.326;2022-09-02T22:43:54;2.13;;;1.23;;
61553;SDS011;47425;51.976;5.326;2022-09-02T22:49:49;1.40;;;1.05;;
61553;SDS011;47425;51.976;5.326;2022-09-02T22:52:38;0.98;;;0.88;;
61553;SDS011;47425;51.976;5.326;2022-09-02T23:01:25;1.75;;;1.00;;
61553;SDS011;47425;51.976;5.326;2022-09-02T23:06:38;0.80;;;0.80;;
61553;SDS011;47425;51.976;5.326;2022-09-02T23:09:03;1.23;;;1.02;;
61553;SDS011;47425;51.976;5.326;2022-09-02T23:11:49;1.48;;;1.15;;
61553;SDS011;47425;51.976;5.326;2022-09-02T23:18:02;1.25;;;0.95;;
61553;SDS011;47425;51.976;5.326;2022-09-02T23:23:46;1.30;;;1.10;;
61553;SDS011;47425;51.976;5.326;2022-09-02T23:26:26;1.02;;;0.90;;
61553;SDS011;47425;51.976;5.326;2022-09-02T23:42:40;1.50;;;1.00;;
61553;SDS011;47425;51.976;5.326;2022-09-02T23:51:15;1.30;;;1.00;;
